sensor_id;sensor_type;location;lat;lon;timestamp;P1;durP1;ratioP1;P2;durP2;ratioP2
15716;SDS011;7960;50.908;4.204;2023-02-28T00:00:49;13.13;;;6.93;;
15716;SDS011;7960;50.908;4.204;2023-02-28T00:03:16;10.27;;;7.13;;
15716;SDS011;7960;50.908;4.204;2023-02-28T00:05:43;9.63;;;6.97;;
15716;SDS011;7960;50.908;4.204;2023-02-28T00:08:10;9.57;;;6.63;;
15716;SDS011;7960;50.908;4.204;2023-02-28T00:10:38;10.93;;;7.23;;
15716;SDS011;7960;50.908;4.204;2023-02-28T00:13:05;13.60;;;6.83;;
15716;SDS011;7960;50.908;4.204;2023-02-28T00:15:34;12.00;;;7.07;;
15716;SDS011;7960;50.908;4.204;2023-02-28T00:18:01;11.57;;;6.87;;
15716;SDS011;7960;50.908;4.204;2023-02-28T00:20:28;9.03;;;6.60;;
15716;SDS011;7960;50.908;4.204;2023-02-28T00:22:55;12.07;;;7.20;;
15716;SDS011;7960;50.908;4.204;2023-02-28T00:25:23;12.60;;;6.97;;
15716;SDS011;7960;50.908;4.204;2023-02-28T00:27:51;10.17;;;7.17;;
15716;SDS011;7960;50.908;4.204;2023-02-28T00:30:19;10.90;;;7.33;;
15716;SDS011;7960;50.908;4.204;2023-02-28T00:32:48;11.47;;;7.10;;
15716;SDS011;7960;50.908;4.204;2023-02-28T00:35:16;12.53;;;7.57;;
15716;SDS011;7960;50.908;4.204;2023-02-28T00:37:43;9.20;;;7.10;;
15716;SDS011;7960;50.908;4.204;2023-02-28T00:40:10;16.63;;;7.40;;
15716;SDS011;7960;50.908;4.204;2023-02-28T00:42:38;11.23;;;7.27;;
15716;SDS011;7960;50.908;4.204;2023-02-28T00:45:06;9.60;;;7.20;;
15716;SDS011;7960;50.908;4.204;2023-02-28T00:47:34;9.90;;;7.10;;
15716;SDS011;7960;50.908;4.204;2023-02-28T00:50:02;15.10;;;8.33;;
15716;SDS011;7960;50.908;4.204;2023-02-28T00:52:29;10.93;;;7.00;;
15716;SDS011;7960;50.908;4.204;2023-02-28T00:54:56;11.23;;;7.93;;
15716;SDS011;7960;50.908;4.204;2023-02-28T00:57:23;9.90;;;7.03;;
15716;SDS011;7960;50.908;4.204;2023-02-28T00:59:51;14.73;;;7.43;;
15716;SDS011;7960;50.908;4.204;2023-02-28T01:02:19;12.87;;;7.57;;
15716;SDS011;7960;50.908;4.204;2023-02-28T01:04:46;10.17;;;6.93;;
15716;SDS011;7960;50.908;4.204;2023-02-28T01:07:14;10.00;;;7.33;;
15716;SDS011;7960;50.908;4.204;2023-02-28T01:09:41;10.50;;;7.00;;
15716;SDS011;7960;50.908;4.204;2023-02-28T01:12:08;8.57;;;7.00;;
15716;SDS011;7960;50.908;4.204;2023-02-28T01:14:35;10.57;;;7.13;;
15716;SDS011;7960;50.908;4.204;2023-02-28T01:17:02;11.77;;;6.90;;
15716;SDS011;7960;50.908;4.204;2023-02-28T01:19:29;13.73;;;7.53;;
15716;SDS011;7960;50.908;4.204;2023-02-28T01:21:56;9.30;;;7.23;;
15716;SDS011;7960;50.908;4.204;2023-02-28T01:24:24;9.50;;;7.33;;
15716;SDS011;7960;50.908;4.204;2023-02-28T01:26:51;11.17;;;6.97;;
15716;SDS011;7960;50.908;4.204;2023-02-28T01:29:18;12.70;;;7.20;;
15716;SDS011;7960;50.908;4.204;2023-02-28T01:31:45;12.37;;;7.33;;
15716;SDS011;7960;50.908;4.204;2023-02-28T01:34:11;11.60;;;7.50;;
15716;SDS011;7960;50.908;4.204;2023-02-28T01:36:38;9.97;;;6.73;;
15716;SDS011;7960;50.908;4.204;2023-02-28T01:39:05;10.47;;;7.00;;
15716;SDS011;7960;50.908;4.204;2023-02-28T01:41:34;13.27;;;7.97;;
15716;SDS011;7960;50.908;4.204;2023-02-28T01:44:03;11.70;;;7.70;;
15716;SDS011;7960;50.908;4.204;2023-02-28T01:46:32;8.70;;;7.07;;
15716;SDS011;7960;50.908;4.204;2023-02-28T01:49:02;12.23;;;7.43;;
15716;SDS011;7960;50.908;4.204;2023-02-28T01:51:33;12.33;;;7.47;;
15716;SDS011;7960;50.908;4.204;2023-02-28T01:54:05;18.60;;;8.37;;
15716;SDS011;7960;50.908;4.204;2023-02-28T01:56:41;10.33;;;7.53;;
15716;SDS011;7960;50.908;4.204;2023-02-28T01:59:13;11.00;;;7.40;;
15716;SDS011;7960;50.908;4.204;2023-02-28T02:01:46;12.50;;;7.70;;
15716;SDS011;7960;50.908;4.204;2023-02-28T02:04:13;10.77;;;7.90;;
15716;SDS011;7960;50.908;4.204;2023-02-28T02:06:41;11.13;;;7.57;;
15716;SDS011;7960;50.908;4.204;2023-02-28T02:09:10;9.80;;;7.10;;
15716;SDS011;7960;50.908;4.204;2023-02-28T02:11:37;11.57;;;7.97;;
15716;SDS011;7960;50.908;4.204;2023-02-28T02:17:18;10.93;;;7.67;;
15716;SDS011;7960;50.908;4.204;2023-02-28T02:26:04;15.67;;;7.90;;
15716;SDS011;7960;50.908;4.204;2023-02-28T02:28:58;12.50;;;7.77;;
15716;SDS011;7960;50.908;4.204;2023-02-28T02:34:43;13.77;;;8.03;;
15716;SDS011;7960;50.908;4.204;2023-02-28T02:37:25;12.73;;;8.57;;
15716;SDS011;7960;50.908;4.204;2023-02-28T02:39:58;10.53;;;7.87;;
15716;SDS011;7960;50.908;4.204;2023-02-28T02:42:31;9.53;;;6.87;;
15716;SDS011;7960;50.908;4.204;2023-02-28T02:45:06;13.23;;;8.43;;
15716;SDS011;7960;50.908;4.204;2023-02-28T02:47:38;12.80;;;8.73;;
15716;SDS011;7960;50.908;4.204;2023-02-28T02:50:11;12.37;;;8.03;;
15716;SDS011;7960;50.908;4.204;2023-02-28T02:52:42;12.13;;;8.10;;
15716;SDS011;7960;50.908;4.204;2023-02-28T02:55:11;18.83;;;8.60;;
15716;SDS011;7960;50.908;4.204;2023-02-28T02:57:42;12.30;;;8.13;;
15716;SDS011;7960;50.908;4.204;2023-02-28T03:00:12;12.33;;;8.70;;
15716;SDS011;7960;50.908;4.204;2023-02-28T03:02:42;13.13;;;8.30;;
15716;SDS011;7960;50.908;4.204;2023-02-28T03:05:14;15.13;;;8.47;;
15716;SDS011;7960;50.908;4.204;2023-02-28T03:07:45;13.27;;;7.90;;
15716;SDS011;7960;50.908;4.204;2023-02-28T03:10:26;13.77;;;9.07;;
15716;SDS011;7960;50.908;4.204;2023-02-28T03:13:11;12.97;;;8.30;;
15716;SDS011;7960;50.908;4.204;2023-02-28T03:16:04;12.43;;;7.77;;
15716;SDS011;7960;50.908;4.204;2023-02-28T03:18:42;12.97;;;8.77;;
15716;SDS011;7960;50.908;4.204;2023-02-28T03:21:21;13.80;;;8.23;;
15716;SDS011;7960;50.908;4.204;2023-02-28T03:23:53;12.03;;;7.93;;
15716;SDS011;7960;50.908;4.204;2023-02-28T03:26:26;11.07;;;8.33;;
15716;SDS011;7960;50.908;4.204;2023-02-28T03:28:54;11.90;;;8.33;;
15716;SDS011;7960;50.908;4.204;2023-02-28T03:31:28;11.93;;;8.10;;
15716;SDS011;7960;50.908;4.204;2023-02-28T03:34:00;11.50;;;8.20;;
15716;SDS011;7960;50.908;4.204;2023-02-28T03:36:35;12.10;;;8.70;;
15716;SDS011;7960;50.908;4.204;2023-02-28T03:39:11;16.13;;;8.87;;
15716;SDS011;7960;50.908;4.204;2023-02-28T03:41:41;12.20;;;8.20;;
15716;SDS011;7960;50.908;4.204;2023-02-28T03:44:14;11.13;;;8.00;;
15716;SDS011;7960;50.908;4.204;2023-02-28T03:46:46;13.03;;;9.27;;
15716;SDS011;7960;50.908;4.204;2023-02-28T03:49:20;13.60;;;8.50;;
15716;SDS011;7960;50.908;4.204;2023-02-28T03:51:52;13.57;;;8.10;;
15716;SDS011;7960;50.908;4.204;2023-02-28T03:54:22;12.87;;;8.90;;
15716;SDS011;7960;50.908;4.204;2023-02-28T03:56:55;13.80;;;8.67;;
15716;SDS011;7960;50.908;4.204;2023-02-28T03:59:27;14.73;;;8.90;;
15716;SDS011;7960;50.908;4.204;2023-02-28T04:01:56;12.67;;;8.37;;
15716;SDS011;7960;50.908;4.204;2023-02-28T04:04:24;11.90;;;8.87;;
15716;SDS011;7960;50.908;4.204;2023-02-28T04:06:52;12.63;;;8.23;;
15716;SDS011;7960;50.908;4.204;2023-02-28T04:09:27;12.07;;;8.20;;
15716;SDS011;7960;50.908;4.204;2023-02-28T04:11:54;12.13;;;8.60;;
15716;SDS011;7960;50.908;4.204;2023-02-28T04:14:22;11.00;;;8.00;;
15716;SDS011;7960;50.908;4.204;2023-02-28T04:16:50;13.70;;;9.23;;
15716;SDS011;7960;50.908;4.204;2023-02-28T04:19:17;15.07;;;9.27;;
15716;SDS011;7960;50.908;4.204;2023-02-28T04:21:45;12.40;;;9.03;;
15716;SDS011;7960;50.908;4.204;2023-02-28T04:24:15;16.27;;;9.13;;
15716;SDS011;7960;50.908;4.204;2023-02-28T04:26:44;14.70;;;9.37;;
15716;SDS011;7960;50.908;4.204;2023-02-28T04:29:13;15.17;;;8.60;;
15716;SDS011;7960;50.908;4.204;2023-02-28T04:31:44;15.70;;;9.37;;
15716;SDS011;7960;50.908;4.204;2023-02-28T04:34:11;13.87;;;8.60;;
15716;SDS011;7960;50.908;4.204;2023-02-28T04:36:38;15.20;;;9.00;;
15716;SDS011;7960;50.908;4.204;2023-02-28T04:39:04;13.23;;;8.77;;
15716;SDS011;7960;50.908;4.204;2023-02-28T04:41:33;13.97;;;9.37;;
15716;SDS011;7960;50.908;4.204;2023-02-28T04:43:59;14.30;;;9.37;;
15716;SDS011;7960;50.908;4.204;2023-02-28T04:46:26;12.77;;;8.53;;
15716;SDS011;7960;50.908;4.204;2023-02-28T04:48:53;14.00;;;8.80;;
15716;SDS011;7960;50.908;4.204;2023-02-28T04:51:20;14.17;;;9.07;;
15716;SDS011;7960;50.908;4.204;2023-02-28T04:53:48;12.33;;;8.63;;
15716;SDS011;7960;50.908;4.204;2023-02-28T04:56:15;15.13;;;8.63;;
15716;SDS011;7960;50.908;4.204;2023-02-28T04:58:44;12.77;;;9.17;;
15716;SDS011;7960;50.908;4.204;2023-02-28T05:01:16;12.23;;;8.43;;
15716;SDS011;7960;50.908;4.204;2023-02-28T05:03:45;13.10;;;8.90;;
15716;SDS011;7960;50.908;4.204;2023-02-28T05:06:12;14.00;;;8.60;;
15716;SDS011;7960;50.908;4.204;2023-02-28T05:08:40;11.37;;;8.33;;
15716;SDS011;7960;50.908;4.204;2023-02-28T05:11:07;12.83;;;9.33;;
15716;SDS011;7960;50.908;4.204;2023-02-28T05:13:40;12.50;;;8.90;;
15716;SDS011;7960;50.908;4.204;2023-02-28T05:16:09;16.10;;;9.30;;
15716;SDS011;7960;50.908;4.204;2023-02-28T05:18:35;12.13;;;8.20;;
15716;SDS011;7960;50.908;4.204;2023-02-28T05:21:02;12.23;;;8.33;;
15716;SDS011;7960;50.908;4.204;2023-02-28T05:23:29;15.03;;;9.40;;
15716;SDS011;7960;50.908;4.204;2023-02-28T05:25:56;13.70;;;8.80;;
15716;SDS011;7960;50.908;4.204;2023-02-28T05:28:23;14.60;;;9.20;;
15716;SDS011;7960;50.908;4.204;2023-02-28T05:30:50;12.67;;;8.60;;
15716;SDS011;7960;50.908;4.204;2023-02-28T05:33:18;13.80;;;8.87;;
15716;SDS011;7960;50.908;4.204;2023-02-28T05:35:45;13.33;;;9.13;;
15716;SDS011;7960;50.908;4.204;2023-02-28T05:38:12;13.73;;;9.17;;
15716;SDS011;7960;50.908;4.204;2023-02-28T05:40:39;16.20;;;9.93;;
15716;SDS011;7960;50.908;4.204;2023-02-28T05:43:07;14.60;;;9.87;;
15716;SDS011;7960;50.908;4.204;2023-02-28T05:45:36;17.13;;;10.67;;
15716;SDS011;7960;50.908;4.204;2023-02-28T05:48:03;13.47;;;9.57;;
15716;SDS011;7960;50.908;4.204;2023-02-28T05:50:32;18.03;;;9.23;;
15716;SDS011;7960;50.908;4.204;2023-02-28T05:52:58;16.20;;;10.00;;
15716;SDS011;7960;50.908;4.204;2023-02-28T05:55:25;15.70;;;10.13;;
15716;SDS011;7960;50.908;4.204;2023-02-28T05:57:52;15.70;;;10.50;;
15716;SDS011;7960;50.908;4.204;2023-02-28T06:00:19;15.33;;;10.23;;
15716;SDS011;7960;50.908;4.204;2023-02-28T06:02:46;19.03;;;9.93;;
15716;SDS011;7960;50.908;4.204;2023-02-28T06:05:14;21.33;;;10.63;;
15716;SDS011;7960;50.908;4.204;2023-02-28T06:07:44;12.53;;;8.90;;
15716;SDS011;7960;50.908;4.204;2023-02-28T06:10:11;14.60;;;9.50;;
15716;SDS011;7960;50.908;4.204;2023-02-28T06:12:39;18.93;;;9.37;;
15716;SDS011;7960;50.908;4.204;2023-02-28T06:15:07;16.10;;;9.37;;
15716;SDS011;7960;50.908;4.204;2023-02-28T06:17:39;17.83;;;9.50;;
15716;SDS011;7960;50.908;4.204;2023-02-28T06:20:07;13.57;;;8.50;;
15716;SDS011;7960;50.908;4.204;2023-02-28T06:22:35;14.57;;;8.77;;
15716;SDS011;7960;50.908;4.204;2023-02-28T06:25:04;19.43;;;9.10;;
15716;SDS011;7960;50.908;4.204;2023-02-28T06:27:32;18.37;;;9.23;;
15716;SDS011;7960;50.908;4.204;2023-02-28T06:29:59;14.10;;;9.63;;
15716;SDS011;7960;50.908;4.204;2023-02-28T06:32:26;13.87;;;9.23;;
15716;SDS011;7960;50.908;4.204;2023-02-28T06:34:53;16.73;;;9.07;;
15716;SDS011;7960;50.908;4.204;2023-02-28T06:37:22;12.43;;;8.43;;
15716;SDS011;7960;50.908;4.204;2023-02-28T06:39:51;12.43;;;8.73;;
15716;SDS011;7960;50.908;4.204;2023-02-28T06:42:19;13.77;;;8.50;;
15716;SDS011;7960;50.908;4.204;2023-02-28T06:44:47;13.23;;;8.63;;
15716;SDS011;7960;50.908;4.204;2023-02-28T06:47:14;17.60;;;9.53;;
15716;SDS011;7960;50.908;4.204;2023-02-28T06:49:40;13.63;;;8.63;;
15716;SDS011;7960;50.908;4.204;2023-02-28T06:52:07;15.87;;;9.17;;
15716;SDS011;7960;50.908;4.204;2023-02-28T06:54:35;13.23;;;8.63;;
15716;SDS011;7960;50.908;4.204;2023-02-28T06:57:02;13.27;;;8.23;;
15716;SDS011;7960;50.908;4.204;2023-02-28T06:59:31;14.23;;;9.17;;
15716;SDS011;7960;50.908;4.204;2023-02-28T07:01:58;15.83;;;9.07;;
15716;SDS011;7960;50.908;4.204;2023-02-28T07:04:25;14.33;;;8.57;;
15716;SDS011;7960;50.908;4.204;2023-02-28T07:06:52;17.13;;;9.10;;
15716;SDS011;7960;50.908;4.204;2023-02-28T07:09:21;13.47;;;8.57;;
15716;SDS011;7960;50.908;4.204;2023-02-28T07:11:47;16.20;;;9.90;;
15716;SDS011;7960;50.908;4.204;2023-02-28T07:14:14;23.07;;;11.10;;
15716;SDS011;7960;50.908;4.204;2023-02-28T07:16:43;15.10;;;8.90;;
15716;SDS011;7960;50.908;4.204;2023-02-28T07:19:10;18.50;;;9.87;;
15716;SDS011;7960;50.908;4.204;2023-02-28T07:21:37;12.53;;;8.23;;
15716;SDS011;7960;50.908;4.204;2023-02-28T07:24:04;13.37;;;8.17;;
15716;SDS011;7960;50.908;4.204;2023-02-28T07:26:31;12.77;;;8.97;;
15716;SDS011;7960;50.908;4.204;2023-02-28T07:28:59;16.27;;;8.63;;
15716;SDS011;7960;50.908;4.204;2023-02-28T07:31:27;15.03;;;8.80;;
15716;SDS011;7960;50.908;4.204;2023-02-28T07:33:55;14.40;;;9.37;;
15716;SDS011;7960;50.908;4.204;2023-02-28T07:36:22;14.87;;;8.77;;
15716;SDS011;7960;50.908;4.204;2023-02-28T07:38:49;14.33;;;9.20;;
15716;SDS011;7960;50.908;4.204;2023-02-28T07:41:16;43.80;;;13.60;;
15716;SDS011;7960;50.908;4.204;2023-02-28T07:43:43;17.50;;;9.60;;
15716;SDS011;7960;50.908;4.204;2023-02-28T07:46:11;13.37;;;10.23;;
15716;SDS011;7960;50.908;4.204;2023-02-28T07:48:40;12.90;;;8.80;;
15716;SDS011;7960;50.908;4.204;2023-02-28T07:51:09;13.27;;;8.10;;
15716;SDS011;7960;50.908;4.204;2023-02-28T07:53:36;15.87;;;8.53;;
15716;SDS011;7960;50.908;4.204;2023-02-28T07:56:03;13.60;;;8.87;;
15716;SDS011;7960;50.908;4.204;2023-02-28T07:58:31;16.30;;;9.77;;
15716;SDS011;7960;50.908;4.204;2023-02-28T08:01:04;11.77;;;9.03;;
15716;SDS011;7960;50.908;4.204;2023-02-28T08:03:33;13.33;;;9.03;;
15716;SDS011;7960;50.908;4.204;2023-02-28T08:06:00;11.17;;;8.57;;
15716;SDS011;7960;50.908;4.204;2023-02-28T08:08:29;12.07;;;7.53;;
15716;SDS011;7960;50.908;4.204;2023-02-28T08:10:57;12.83;;;8.17;;
15716;SDS011;7960;50.908;4.204;2023-02-28T08:13:27;9.57;;;7.73;;
15716;SDS011;7960;50.908;4.204;2023-02-28T08:15:57;12.57;;;8.17;;
15716;SDS011;7960;50.908;4.204;2023-02-28T08:18:24;10.73;;;7.23;;
15716;SDS011;7960;50.908;4.204;2023-02-28T08:20:53;10.43;;;7.50;;
15716;SDS011;7960;50.908;4.204;2023-02-28T08:23:19;11.87;;;7.00;;
15716;SDS011;7960;50.908;4.204;2023-02-28T08:25:53;9.83;;;7.20;;
15716;SDS011;7960;50.908;4.204;2023-02-28T08:28:20;11.83;;;6.47;;
15716;SDS011;7960;50.908;4.204;2023-02-28T08:30:47;8.70;;;6.50;;
15716;SDS011;7960;50.908;4.204;2023-02-28T08:33:15;11.33;;;6.27;;
15716;SDS011;7960;50.908;4.204;2023-02-28T08:35:42;13.90;;;6.50;;
15716;SDS011;7960;50.908;4.204;2023-02-28T08:38:08;15.07;;;6.37;;
15716;SDS011;7960;50.908;4.204;2023-02-28T08:40:36;9.57;;;5.90;;
15716;SDS011;7960;50.908;4.204;2023-02-28T08:43:04;12.93;;;6.53;;
15716;SDS011;7960;50.908;4.204;2023-02-28T08:45:31;10.60;;;5.80;;
15716;SDS011;7960;50.908;4.204;2023-02-28T08:47:58;11.50;;;5.90;;
15716;SDS011;7960;50.908;4.204;2023-02-28T08:50:25;19.47;;;6.70;;
15716;SDS011;7960;50.908;4.204;2023-02-28T08:52:52;6.50;;;4.80;;
15716;SDS011;7960;50.908;4.204;2023-02-28T08:55:19;5.67;;;4.20;;
15716;SDS011;7960;50.908;4.204;2023-02-28T08:57:45;6.77;;;4.40;;
15716;SDS011;7960;50.908;4.204;2023-02-28T09:00:14;5.30;;;4.23;;
15716;SDS011;7960;50.908;4.204;2023-02-28T09:02:41;6.03;;;4.23;;
15716;SDS011;7960;50.908;4.204;2023-02-28T09:05:08;6.10;;;4.20;;
15716;SDS011;7960;50.908;4.204;2023-02-28T09:07:35;8.07;;;4.63;;
15716;SDS011;7960;50.908;4.204;2023-02-28T09:10:02;7.13;;;4.40;;
15716;SDS011;7960;50.908;4.204;2023-02-28T09:12:32;6.80;;;4.20;;
15716;SDS011;7960;50.908;4.204;2023-02-28T09:15:00;4.83;;;3.93;;
15716;SDS011;7960;50.908;4.204;2023-02-28T09:17:29;4.80;;;3.83;;
15716;SDS011;7960;50.908;4.204;2023-02-28T09:19:56;6.60;;;4.17;;
15716;SDS011;7960;50.908;4.204;2023-02-28T09:22:23;5.87;;;4.47;;
15716;SDS011;7960;50.908;4.204;2023-02-28T09:24:50;7.83;;;3.90;;
15716;SDS011;7960;50.908;4.204;2023-02-28T09:27:16;3.60;;;3.20;;
15716;SDS011;7960;50.908;4.204;2023-02-28T09:29:43;4.40;;;3.33;;
15716;SDS011;7960;50.908;4.204;2023-02-28T09:32:10;8.10;;;3.87;;
15716;SDS011;7960;50.908;4.204;2023-02-28T09:34:38;9.77;;;5.10;;
15716;SDS011;7960;50.908;4.204;2023-02-28T09:37:05;4.90;;;3.13;;
15716;SDS011;7960;50.908;4.204;2023-02-28T09:39:32;5.43;;;3.50;;
15716;SDS011;7960;50.908;4.204;2023-02-28T09:41:59;4.97;;;3.53;;
15716;SDS011;7960;50.908;4.204;2023-02-28T09:44:29;10.57;;;3.47;;
15716;SDS011;7960;50.908;4.204;2023-02-28T09:47:01;11.97;;;4.13;;
15716;SDS011;7960;50.908;4.204;2023-02-28T09:49:36;6.50;;;3.50;;
15716;SDS011;7960;50.908;4.204;2023-02-28T09:52:09;5.40;;;3.93;;
15716;SDS011;7960;50.908;4.204;2023-02-28T09:54:38;14.47;;;5.53;;
15716;SDS011;7960;50.908;4.204;2023-02-28T09:57:07;10.53;;;4.00;;
15716;SDS011;7960;50.908;4.204;2023-02-28T09:59:39;6.23;;;4.43;;
15716;SDS011;7960;50.908;4.204;2023-02-28T10:02:19;5.97;;;3.70;;
15716;SDS011;7960;50.908;4.204;2023-02-28T10:05:06;8.93;;;4.00;;
15716;SDS011;7960;50.908;4.204;2023-02-28T10:07:42;11.57;;;5.50;;
15716;SDS011;7960;50.908;4.204;2023-02-28T10:10:21;16.53;;;4.07;;
15716;SDS011;7960;50.908;4.204;2023-02-28T10:12:52;5.80;;;3.10;;
15716;SDS011;7960;50.908;4.204;2023-02-28T10:15:22;4.87;;;3.23;;
15716;SDS011;7960;50.908;4.204;2023-02-28T10:17:53;4.93;;;3.10;;
15716;SDS011;7960;50.908;4.204;2023-02-28T10:20:25;6.33;;;3.43;;
15716;SDS011;7960;50.908;4.204;2023-02-28T10:22:57;8.47;;;3.60;;
15716;SDS011;7960;50.908;4.204;2023-02-28T10:25:32;17.23;;;6.87;;
15716;SDS011;7960;50.908;4.204;2023-02-28T10:28:00;4.07;;;3.40;;
15716;SDS011;7960;50.908;4.204;2023-02-28T10:30:36;7.00;;;3.10;;
15716;SDS011;7960;50.908;4.204;2023-02-28T10:33:08;11.70;;;4.70;;
15716;SDS011;7960;50.908;4.204;2023-02-28T10:35:45;8.30;;;3.60;;
15716;SDS011;7960;50.908;4.204;2023-02-28T10:38:14;5.53;;;4.57;;
15716;SDS011;7960;50.908;4.204;2023-02-28T10:40:44;10.23;;;4.80;;
15716;SDS011;7960;50.908;4.204;2023-02-28T10:43:19;5.77;;;4.30;;
15716;SDS011;7960;50.908;4.204;2023-02-28T10:45:56;5.67;;;3.17;;
15716;SDS011;7960;50.908;4.204;2023-02-28T10:48:27;8.40;;;4.80;;
15716;SDS011;7960;50.908;4.204;2023-02-28T10:50:59;8.57;;;3.63;;
15716;SDS011;7960;50.908;4.204;2023-02-28T10:53:37;6.03;;;3.33;;
15716;SDS011;7960;50.908;4.204;2023-02-28T10:56:14;3.77;;;2.70;;
15716;SDS011;7960;50.908;4.204;2023-02-28T10:58:48;3.93;;;3.00;;
15716;SDS011;7960;50.908;4.204;2023-02-28T11:01:18;3.53;;;2.77;;
15716;SDS011;7960;50.908;4.204;2023-02-28T11:03:47;5.17;;;3.20;;
15716;SDS011;7960;50.908;4.204;2023-02-28T11:06:18;7.23;;;4.60;;
15716;SDS011;7960;50.908;4.204;2023-02-28T11:08:48;3.40;;;3.03;;
15716;SDS011;7960;50.908;4.204;2023-02-28T11:11:17;4.17;;;3.43;;
15716;SDS011;7960;50.908;4.204;2023-02-28T11:13:46;6.50;;;3.40;;
15716;SDS011;7960;50.908;4.204;2023-02-28T11:16:15;4.57;;;3.30;;
15716;SDS011;7960;50.908;4.204;2023-02-28T11:18:44;5.13;;;3.53;;
15716;SDS011;7960;50.908;4.204;2023-02-28T11:21:21;6.60;;;4.53;;
15716;SDS011;7960;50.908;4.204;2023-02-28T11:23:51;8.70;;;3.47;;
15716;SDS011;7960;50.908;4.204;2023-02-28T11:29:10;8.27;;;5.00;;
15716;SDS011;7960;50.908;4.204;2023-02-28T11:31:41;5.20;;;3.30;;
15716;SDS011;7960;50.908;4.204;2023-02-28T11:36:54;6.87;;;4.30;;
15716;SDS011;7960;50.908;4.204;2023-02-28T11:39:23;3.47;;;2.80;;
15716;SDS011;7960;50.908;4.204;2023-02-28T11:41:55;7.90;;;3.50;;
15716;SDS011;7960;50.908;4.204;2023-02-28T11:44:48;8.40;;;4.30;;
15716;SDS011;7960;50.908;4.204;2023-02-28T11:47:26;7.50;;;4.13;;
15716;SDS011;7960;50.908;4.204;2023-02-28T11:50:03;5.73;;;3.00;;
15716;SDS011;7960;50.908;4.204;2023-02-28T11:52:42;7.67;;;3.70;;
15716;SDS011;7960;50.908;4.204;2023-02-28T11:55:16;50.50;;;7.17;;
15716;SDS011;7960;50.908;4.204;2023-02-28T11:57:53;8.20;;;4.67;;
15716;SDS011;7960;50.908;4.204;2023-02-28T12:00:41;6.50;;;4.70;;
15716;SDS011;7960;50.908;4.204;2023-02-28T12:03:22;4.93;;;3.80;;
15716;SDS011;7960;50.908;4.204;2023-02-28T12:05:57;8.83;;;5.57;;
15716;SDS011;7960;50.908;4.204;2023-02-28T12:08:42;8.43;;;4.73;;
15716;SDS011;7960;50.908;4.204;2023-02-28T12:11:15;6.83;;;4.63;;
15716;SDS011;7960;50.908;4.204;2023-02-28T12:13:52;6.57;;;4.10;;
15716;SDS011;7960;50.908;4.204;2023-02-28T12:19:25;26.87;;;7.83;;
15716;SDS011;7960;50.908;4.204;2023-02-28T12:22:03;23.43;;;5.67;;
15716;SDS011;7960;50.908;4.204;2023-02-28T12:24:57;20.43;;;10.80;;
15716;SDS011;7960;50.908;4.204;2023-02-28T12:27:49;10.57;;;3.63;;
15716;SDS011;7960;50.908;4.204;2023-02-28T12:30:19;4.90;;;3.60;;
15716;SDS011;7960;50.908;4.204;2023-02-28T12:32:51;7.57;;;4.30;;
15716;SDS011;7960;50.908;4.204;2023-02-28T12:35:22;14.63;;;4.80;;
15716;SDS011;7960;50.908;4.204;2023-02-28T12:37:55;10.73;;;5.97;;
15716;SDS011;7960;50.908;4.204;2023-02-28T12:40:33;4.93;;;3.37;;
15716;SDS011;7960;50.908;4.204;2023-02-28T12:43:09;4.77;;;3.33;;
15716;SDS011;7960;50.908;4.204;2023-02-28T12:45:40;5.40;;;3.00;;
15716;SDS011;7960;50.908;4.204;2023-02-28T12:48:11;4.13;;;3.27;;
15716;SDS011;7960;50.908;4.204;2023-02-28T12:50:42;6.93;;;3.50;;
15716;SDS011;7960;50.908;4.204;2023-02-28T12:53:11;7.43;;;4.53;;
15716;SDS011;7960;50.908;4.204;2023-02-28T12:55:45;5.37;;;3.07;;
15716;SDS011;7960;50.908;4.204;2023-02-28T12:58:20;4.50;;;3.10;;
15716;SDS011;7960;50.908;4.204;2023-02-28T13:01:06;7.93;;;5.00;;
15716;SDS011;7960;50.908;4.204;2023-02-28T13:03:57;5.13;;;3.53;;
15716;SDS011;7960;50.908;4.204;2023-02-28T13:10:00;7.80;;;3.60;;
15716;SDS011;7960;50.908;4.204;2023-02-28T13:12:33;8.47;;;3.70;;
15716;SDS011;7960;50.908;4.204;2023-02-28T13:15:03;3.93;;;3.20;;
15716;SDS011;7960;50.908;4.204;2023-02-28T13:17:37;5.30;;;3.03;;
15716;SDS011;7960;50.908;4.204;2023-02-28T13:20:14;3.60;;;3.10;;
15716;SDS011;7960;50.908;4.204;2023-02-28T13:22:43;3.23;;;2.93;;
15716;SDS011;7960;50.908;4.204;2023-02-28T13:31:30;3.87;;;3.07;;
15716;SDS011;7960;50.908;4.204;2023-02-28T13:34:04;5.93;;;3.40;;
15716;SDS011;7960;50.908;4.204;2023-02-28T13:36:38;7.80;;;4.00;;
15716;SDS011;7960;50.908;4.204;2023-02-28T13:39:44;4.90;;;3.30;;
15716;SDS011;7960;50.908;4.204;2023-02-28T13:42:33;6.17;;;3.57;;
15716;SDS011;7960;50.908;4.204;2023-02-28T13:47:52;12.13;;;4.17;;
15716;SDS011;7960;50.908;4.204;2023-02-28T13:50:22;4.87;;;3.27;;
15716;SDS011;7960;50.908;4.204;2023-02-28T13:53:02;2.97;;;2.70;;
15716;SDS011;7960;50.908;4.204;2023-02-28T13:56:03;4.03;;;3.63;;
15716;SDS011;7960;50.908;4.204;2023-02-28T13:58:47;6.13;;;3.73;;
15716;SDS011;7960;50.908;4.204;2023-02-28T14:01:25;5.80;;;3.47;;
15716;SDS011;7960;50.908;4.204;2023-02-28T14:04:23;12.33;;;4.10;;
15716;SDS011;7960;50.908;4.204;2023-02-28T14:07:07;4.50;;;3.60;;
15716;SDS011;7960;50.908;4.204;2023-02-28T14:09:36;6.10;;;4.13;;
15716;SDS011;7960;50.908;4.204;2023-02-28T14:15:30;5.83;;;3.80;;
15716;SDS011;7960;50.908;4.204;2023-02-28T14:21:01;6.17;;;3.90;;
15716;SDS011;7960;50.908;4.204;2023-02-28T14:23:52;4.60;;;3.40;;
15716;SDS011;7960;50.908;4.204;2023-02-28T14:32:47;5.27;;;4.27;;
15716;SDS011;7960;50.908;4.204;2023-02-28T14:35:22;10.90;;;5.30;;
15716;SDS011;7960;50.908;4.204;2023-02-28T14:38:06;8.27;;;4.00;;
15716;SDS011;7960;50.908;4.204;2023-02-28T14:40:43;5.27;;;3.80;;
15716;SDS011;7960;50.908;4.204;2023-02-28T14:43:18;4.90;;;3.70;;
15716;SDS011;7960;50.908;4.204;2023-02-28T14:45:50;5.37;;;3.77;;
15716;SDS011;7960;50.908;4.204;2023-02-28T14:48:19;9.67;;;4.00;;
15716;SDS011;7960;50.908;4.204;2023-02-28T14:50:48;5.07;;;3.30;;
15716;SDS011;7960;50.908;4.204;2023-02-28T14:53:17;13.10;;;5.10;;
15716;SDS011;7960;50.908;4.204;2023-02-28T14:55:47;5.13;;;4.30;;
15716;SDS011;7960;50.908;4.204;2023-02-28T14:58:21;10.33;;;4.47;;
15716;SDS011;7960;50.908;4.204;2023-02-28T15:00:52;11.90;;;4.43;;
15716;SDS011;7960;50.908;4.204;2023-02-28T15:03:22;5.00;;;3.97;;
15716;SDS011;7960;50.908;4.204;2023-02-28T15:05:51;5.40;;;4.13;;
15716;SDS011;7960;50.908;4.204;2023-02-28T15:08:19;7.03;;;4.23;;
15716;SDS011;7960;50.908;4.204;2023-02-28T15:10:50;12.77;;;5.37;;
15716;SDS011;7960;50.908;4.204;2023-02-28T15:13:19;8.87;;;4.73;;
15716;SDS011;7960;50.908;4.204;2023-02-28T15:15:48;5.20;;;4.47;;
15716;SDS011;7960;50.908;4.204;2023-02-28T15:18:26;6.93;;;4.23;;
15716;SDS011;7960;50.908;4.204;2023-02-28T15:20:56;15.80;;;5.27;;
15716;SDS011;7960;50.908;4.204;2023-02-28T15:23:28;8.43;;;4.90;;
15716;SDS011;7960;50.908;4.204;2023-02-28T15:25:56;6.93;;;4.67;;
15716;SDS011;7960;50.908;4.204;2023-02-28T15:28:24;9.80;;;4.83;;
15716;SDS011;7960;50.908;4.204;2023-02-28T15:30:54;6.43;;;5.10;;
15716;SDS011;7960;50.908;4.204;2023-02-28T15:33:24;7.50;;;5.23;;
15716;SDS011;7960;50.908;4.204;2023-02-28T15:36:02;6.20;;;5.13;;
15716;SDS011;7960;50.908;4.204;2023-02-28T15:38:32;8.20;;;5.03;;
15716;SDS011;7960;50.908;4.204;2023-02-28T15:41:01;6.40;;;5.00;;
15716;SDS011;7960;50.908;4.204;2023-02-28T15:43:33;5.10;;;4.43;;
15716;SDS011;7960;50.908;4.204;2023-02-28T15:46:02;6.70;;;5.47;;
15716;SDS011;7960;50.908;4.204;2023-02-28T15:48:33;7.27;;;5.27;;
15716;SDS011;7960;50.908;4.204;2023-02-28T15:51:02;6.87;;;5.23;;
15716;SDS011;7960;50.908;4.204;2023-02-28T15:53:34;7.57;;;5.30;;
15716;SDS011;7960;50.908;4.204;2023-02-28T15:56:03;6.53;;;5.47;;
15716;SDS011;7960;50.908;4.204;2023-02-28T15:58:32;6.97;;;4.57;;
15716;SDS011;7960;50.908;4.204;2023-02-28T16:03:51;9.63;;;4.57;;